Jamaica, Iowa
Current Conditions -  °F | °C
As of 5:55 PM on Sunday 23 Nov 2014 (Local Time) from KPRO Reporting Station
Light Snow Light Snow  
Wind Chill: 32°   Ceiling: 900
Heat Index: 42°   Visibility: 4mi
Dew Point: 41°   Wind: 24mph
Humidity: 95%   Direction: 320°NW
Pressure: 29.43"   Gusts: 29mph
Location:  41.85°N, 94.31°W
Report Text: KPRO 232355Z AUTO 32021G25KT 4SM -SN OVC009 06/05 A2943 RMK AO2 P0001 60001 T00560049 10122 20056
Loading
Personal Weather Stations






























Interactive Weather Map New forecast layout! Learn more

10-Day Weather Forecast

Advertisements
Track Severe Weather on mobile